Time,TemperatureF,DewpointF,PressureIn,WindDirection,WindDirectionDegrees,WindSpeedMPH,WindSpeedGustMPH,Humidity,HourlyPrecipIn,Conditions,Clouds,dailyrainin,SoftwareType,DateUTC
2013-08-17 00:01:00,58.5,57.4,30.26,SE,135,0.0,2.0,96,0.00,,,0.00,meteohub,2013-08-17 04:01:00,
2013-08-17 00:06:00,58.5,57.4,30.26,SE,135,0.0,2.0,96,0.00,,,0.00,meteohub,2013-08-17 04:06:00,
2013-08-17 00:11:00,57.9,56.8,30.26,South,180,1.0,0.0,96,0.00,,,0.00,meteohub,2013-08-17 04:11:00,
2013-08-17 00:16:00,57.9,56.8,30.26,South,180,1.0,1.0,96,0.00,,,0.00,meteohub,2013-08-17 04:16:00,
2013-08-17 00:21:00,57.7,56.7,30.26,SE,135,1.0,2.0,96,0.00,,,0.00,meteohub,2013-08-17 04:21:00,
2013-08-17 00:26:00,57.6,56.7,30.27,NW,315,1.0,2.0,97,0.00,,,0.00,meteohub,2013-08-17 04:26:00,
2013-08-17 00:31:00,57.6,56.7,30.27,SE,135,0.0,2.0,97,0.00,,,0.00,meteohub,2013-08-17 04:31:00,
2013-08-17 00:36:00,57.6,56.7,30.27,SW,225,1.0,1.0,97,0.00,,,0.00,meteohub,2013-08-17 04:36:00,
2013-08-17 00:41:00,57.6,56.7,30.27,SW,225,0.0,1.0,97,0.00,,,0.00,meteohub,2013-08-17 04:41:00,
2013-08-17 00:46:00,57.4,56.5,30.27,SW,225,1.0,1.0,97,0.00,,,0.00,meteohub,2013-08-17 04:46:00,
2013-08-17 00:51:00,57.2,56.3,30.27,SW,225,0.0,1.0,97,0.00,,,0.00,meteohub,2013-08-17 04:51:00,
2013-08-17 00:56:00,57.2,56.3,30.27,SE,135,2.0,2.0,97,0.00,,,0.00,meteohub,2013-08-17 04:56:00,
2013-08-17 01:01:00,56.8,56.5,30.27,SE,135,1.0,2.0,99,0.00,,,0.00,meteohub,2013-08-17 05:01:00,
2013-08-17 01:06:00,56.5,56.1,30.26,SE,135,0.0,2.0,99,0.00,,,0.00,meteohub,2013-08-17 05:06:00,
2013-08-17 01:11:00,56.5,56.1,30.26,SE,135,0.0,2.0,99,0.00,,,0.00,meteohub,2013-08-17 05:11:00,
2013-08-17 01:16:00,56.5,56.1,30.26,SW,225,1.0,1.0,99,0.00,,,0.00,meteohub,2013-08-17 05:16:00,
2013-08-17 01:21:00,56.3,55.9,30.26,SE,135,0.0,1.0,99,0.00,,,0.00,meteohub,2013-08-17 05:21:00,
2013-08-17 01:26:00,56.3,55.9,30.26,SE,135,0.0,1.0,99,0.00,,,0.00,meteohub,2013-08-17 05:26:00,
2013-08-17 01:31:00,56.3,55.9,30.26,SW,225,0.0,1.0,99,0.00,,,0.00,meteohub,2013-08-17 05:31:00,
2013-08-17 01:37:00,56.1,55.8,30.26,SW,225,0.0,1.0,99,0.00,,,0.00,meteohub,2013-08-17 05:37:00,
2013-08-17 01:42:00,56.1,55.8,30.26,SW,225,0.0,0.0,99,0.00,,,0.00,meteohub,2013-08-17 05:42:00,
2013-08-17 01:47:00,55.9,55.6,30.26,SW,225,0.0,0.0,99,0.00,,,0.00,meteohub,2013-08-17 05:47:00,
2013-08-17 01:52:00,55.8,55.4,30.26,SW,225,0.0,0.0,99,0.00,,,0.00,meteohub,2013-08-17 05:52:00,
2013-08-17 01:57:00,55.8,55.4,30.26,SW,225,0.0,0.0,99,0.00,,,0.00,meteohub,2013-08-17 05:57:00,
2013-08-17 02:02:00,55.6,55.2,30.26,SE,135,1.0,0.0,99,0.00,,,0.00,meteohub,2013-08-17 06:02:00,
2013-08-17 02:07:00,55.6,55.2,30.26,West,270,0.0,1.0,99,0.00,,,0.00,meteohub,2013-08-17 06:07:00,
2013-08-17 02:12:00,55.6,55.2,30.25,SW,225,1.0,1.0,99,0.00,,,0.00,meteohub,2013-08-17 06:12:00,
2013-08-17 02:17:00,55.6,55.2,30.25,South,180,1.0,1.0,99,0.00,,,0.00,meteohub,2013-08-17 06:17:00,
2013-08-17 02:22:00,55.6,55.2,30.25,South,180,0.0,2.0,99,0.00,,,0.00,meteohub,2013-08-17 06:22:00,
2013-08-17 02:27:00,55.6,55.2,30.25,South,180,0.0,2.0,99,0.00,,,0.00,meteohub,2013-08-17 06:27:00,
2013-08-17 02:32:00,55.6,55.2,30.25,South,180,0.0,2.0,99,0.00,,,0.00,meteohub,2013-08-17 06:32:00,
2013-08-17 02:37:00,55.6,55.2,30.25,SW,225,0.0,0.0,99,0.00,,,0.00,meteohub,2013-08-17 06:37:00,
2013-08-17 02:42:00,55.6,55.2,30.25,South,180,0.0,0.0,99,0.00,,,0.00,meteohub,2013-08-17 06:42:00,
2013-08-17 02:47:00,55.6,55.2,30.24,South,180,0.0,2.0,99,0.00,,,0.00,meteohub,2013-08-17 06:47:00,
2013-08-17 02:52:00,55.4,55.0,30.24,South,180,0.0,2.0,99,0.00,,,0.00,meteohub,2013-08-17 06:52:00,
2013-08-17 02:57:00,55.4,55.0,30.25,NE,45,1.0,2.0,99,0.00,,,0.00,meteohub,2013-08-17 06:57:00,
2013-08-17 03:02:00,55.4,55.0,30.25,NE,45,1.0,1.0,99,0.00,,,0.00,meteohub,2013-08-17 07:02:00,
2013-08-17 03:07:00,55.4,55.0,30.26,SW,225,1.0,1.0,99,0.00,,,0.00,meteohub,2013-08-17 07:07:00,
2013-08-17 03:12:00,55.4,55.0,30.25,NW,315,2.0,2.0,99,0.00,,,0.00,meteohub,2013-08-17 07:12:00,
2013-08-17 03:17:00,55.6,55.2,30.25,West,270,0.0,2.0,99,0.00,,,0.00,meteohub,2013-08-17 07:17:00,
2013-08-17 03:22:00,55.6,55.2,30.26,South,180,2.0,2.0,99,0.00,,,0.00,meteohub,2013-08-17 07:22:00,
2013-08-17 03:27:00,55.6,55.2,30.25,SW,225,0.0,2.0,99,0.00,,,0.00,meteohub,2013-08-17 07:27:00,
2013-08-17 03:32:00,55.8,55.4,30.26,SW,225,0.0,2.0,99,0.00,,,0.00,meteohub,2013-08-17 07:32:00,
2013-08-17 03:37:00,55.8,55.4,30.26,SW,225,0.0,2.0,99,0.00,,,0.00,meteohub,2013-08-17 07:37:00,
2013-08-17 03:42:00,55.9,55.6,30.26,SE,135,0.0,0.0,99,0.00,,,0.00,meteohub,2013-08-17 07:42:00,
2013-08-17 03:47:00,55.9,55.6,30.26,SE,135,0.0,1.0,99,0.00,,,0.00,meteohub,2013-08-17 07:47:00,
2013-08-17 03:52:00,55.9,55.6,30.26,SW,225,1.0,1.0,99,0.00,,,0.00,meteohub,2013-08-17 07:52:00,
2013-08-17 03:57:00,55.9,55.6,30.25,South,180,0.0,2.0,99,0.00,,,0.00,meteohub,2013-08-17 07:57:00,
2013-08-17 04:02:00,56.1,55.8,30.25,South,180,0.0,2.0,99,0.00,,,0.00,meteohub,2013-08-17 08:02:00,
2013-08-17 04:07:00,56.1,55.8,30.25,SW,225,0.0,1.0,99,0.00,,,0.00,meteohub,2013-08-17 08:07:00,
2013-08-17 04:12:00,56.1,55.8,30.25,SE,135,1.0,1.0,99,0.00,,,0.00,meteohub,2013-08-17 08:12:00,
2013-08-17 04:17:00,56.1,55.8,30.25,NE,45,0.0,2.0,99,0.00,,,0.00,meteohub,2013-08-17 08:17:00,
2013-08-17 04:22:00,56.1,55.8,30.25,NE,45,0.0,2.0,99,0.00,,,0.00,meteohub,2013-08-17 08:22:00,
2013-08-17 04:27:00,55.9,55.6,30.25,NE,45,0.0,1.0,99,0.00,,,0.00,meteohub,2013-08-17 08:27:00,
2013-08-17 04:32:00,55.9,55.6,30.25,NE,45,0.0,0.0,99,0.00,,,0.00,meteohub,2013-08-17 08:32:00,
2013-08-17 04:37:00,55.8,55.4,30.25,South,180,0.0,1.0,99,0.00,,,0.00,meteohub,2013-08-17 08:37:00,
2013-08-17 04:42:00,55.8,55.4,30.25,South,180,2.0,2.0,99,0.00,,,0.00,meteohub,2013-08-17 08:42:00,
2013-08-17 04:47:00,55.8,55.4,30.25,SW,225,0.0,2.0,99,0.00,,,0.00,meteohub,2013-08-17 08:47:00,
2013-08-17 04:52:00,55.8,55.4,30.24,South,180,1.0,2.0,99,0.00,,,0.00,meteohub,2013-08-17 08:52:00,
2013-08-17 04:57:00,55.8,55.4,30.25,SE,135,2.0,2.0,99,0.00,,,0.00,meteohub,2013-08-17 08:57:00,
2013-08-17 05:01:00,56.1,55.8,30.25,South,180,1.0,3.0,99,0.00,,,0.00,meteohub,2013-08-17 09:01:00,
2013-08-17 05:06:00,56.1,55.8,30.25,SW,225,1.0,3.0,99,0.00,,,0.00,meteohub,2013-08-17 09:06:00,
2013-08-17 05:12:00,56.1,55.8,30.25,SE,135,1.0,3.0,99,0.00,,,0.00,meteohub,2013-08-17 09:12:00,
2013-08-17 05:17:00,56.1,55.8,30.25,South,180,0.0,2.0,99,0.00,,,0.00,meteohub,2013-08-17 09:17:00,
2013-08-17 05:22:00,56.1,55.8,30.25,South,180,0.0,2.0,99,0.00,,,0.00,meteohub,2013-08-17 09:22:00,
2013-08-17 05:27:00,56.1,55.8,30.25,South,180,1.0,2.0,99,0.00,,,0.00,meteohub,2013-08-17 09:27:00,
2013-08-17 05:32:00,56.1,55.8,30.26,South,180,0.0,2.0,99,0.00,,,0.00,meteohub,2013-08-17 09:32:00,
2013-08-17 05:37:00,55.9,55.6,30.26,South,180,0.0,2.0,99,0.00,,,0.00,meteohub,2013-08-17 09:37:00,
2013-08-17 05:42:00,55.9,55.6,30.26,South,180,1.0,2.0,99,0.00,,,0.00,meteohub,2013-08-17 09:42:00,
2013-08-17 05:47:00,55.8,55.4,30.26,SW,225,0.0,1.0,99,0.00,,,0.00,meteohub,2013-08-17 09:47:00,
2013-08-17 05:52:00,55.8,55.4,30.26,SW,225,0.0,1.0,99,0.00,,,0.00,meteohub,2013-08-17 09:52:00,
2013-08-17 05:57:00,55.8,55.4,30.26,North,0,0.0,1.0,99,0.00,,,0.00,meteohub,2013-08-17 09:57:00,
2013-08-17 06:02:00,55.6,55.2,30.26,South,180,1.0,1.0,99,0.00,,,0.00,meteohub,2013-08-17 10:02:00,
2013-08-17 06:07:00,55.6,55.2,30.26,South,180,1.0,2.0,99,0.00,,,0.00,meteohub,2013-08-17 10:07:00,
2013-08-17 06:12:00,55.6,55.2,30.26,South,180,0.0,2.0,99,0.00,,,0.00,meteohub,2013-08-17 10:12:00,
2013-08-17 06:17:00,55.4,55.0,30.27,South,180,0.0,1.0,99,0.00,,,0.00,meteohub,2013-08-17 10:17:00,
2013-08-17 06:22:00,55.4,55.0,30.27,South,180,1.0,1.0,99,0.00,,,0.00,meteohub,2013-08-17 10:22:00,
2013-08-17 06:27:00,55.2,54.3,30.27,South,180,0.0,1.0,97,0.00,,,0.00,meteohub,2013-08-17 10:27:00,
2013-08-17 06:32:00,55.2,54.3,30.27,South,180,1.0,1.0,97,0.00,,,0.00,meteohub,2013-08-17 10:32:00,
2013-08-17 06:37:00,55.0,54.1,30.28,South,180,1.0,2.0,97,0.00,,,0.00,meteohub,2013-08-17 10:37:00,
2013-08-17 06:42:00,55.0,54.1,30.28,South,180,2.0,2.0,97,0.00,,,0.00,meteohub,2013-08-17 10:42:00,
2013-08-17 06:47:00,55.0,54.1,30.27,South,180,0.0,2.0,97,0.00,,,0.00,meteohub,2013-08-17 10:47:00,
2013-08-17 06:52:00,55.0,54.1,30.27,South,180,0.0,2.0,97,0.00,,,0.00,meteohub,2013-08-17 10:52:00,
2013-08-17 06:57:00,54.9,54.0,30.28,SW,225,1.0,2.0,97,0.00,,,0.00,meteohub,2013-08-17 10:57:00,
2013-08-17 07:02:00,55.0,54.1,30.28,South,180,0.0,2.0,97,0.00,,,0.00,meteohub,2013-08-17 11:02:00,
2013-08-17 07:07:00,55.0,54.1,30.27,South,180,0.0,2.0,97,0.00,,,0.00,meteohub,2013-08-17 11:07:00,
2013-08-17 07:12:00,55.0,54.1,30.27,South,180,1.0,2.0,97,0.00,,,0.00,meteohub,2013-08-17 11:12:00,
2013-08-17 07:17:00,55.2,54.3,30.27,South,180,0.0,2.0,97,0.00,,,0.00,meteohub,2013-08-17 11:17:00,
2013-08-17 07:22:00,55.4,55.0,30.28,South,180,0.0,2.0,99,0.00,,,0.00,meteohub,2013-08-17 11:22:00,
2013-08-17 07:27:00,55.6,55.2,30.28,South,180,0.0,2.0,99,0.00,,,0.00,meteohub,2013-08-17 11:27:00,
2013-08-17 07:32:00,55.8,55.4,30.28,South,180,1.0,2.0,99,0.00,,,0.00,meteohub,2013-08-17 11:32:00,
2013-08-17 07:37:00,56.1,55.8,30.28,North,0,2.0,2.0,99,0.00,,,0.00,meteohub,2013-08-17 11:37:00,
2013-08-17 07:42:00,56.5,56.1,30.29,North,0,1.0,2.0,99,0.00,,,0.00,meteohub,2013-08-17 11:42:00,
2013-08-17 07:47:00,56.7,56.3,30.28,NW,315,1.0,2.0,99,0.00,,,0.00,meteohub,2013-08-17 11:47:00,
2013-08-17 07:52:00,57.0,56.7,30.28,SE,135,0.0,2.0,99,0.00,,,0.00,meteohub,2013-08-17 11:52:00,
2013-08-17 07:57:00,57.4,57.0,30.28,NE,45,2.0,2.0,99,0.00,,,0.00,meteohub,2013-08-17 11:57:00,
2013-08-17 08:02:00,57.6,57.2,30.28,NE,45,2.0,2.0,99,0.00,,,0.00,meteohub,2013-08-17 12:02:00,
2013-08-17 08:06:00,57.6,57.2,30.28,NE,45,2.0,2.0,99,0.00,,,0.00,meteohub,2013-08-17 12:06:00,
2013-08-17 08:11:00,59.4,59.0,30.28,North,0,1.0,2.0,99,0.00,,,0.00,meteohub,2013-08-17 12:11:00,
2013-08-17 08:16:00,60.3,59.9,30.28,NE,45,2.0,2.0,99,0.00,,,0.00,meteohub,2013-08-17 12:16:00,
2013-08-17 08:21:00,61.2,60.6,30.28,NE,45,1.0,2.0,98,0.00,,,0.00,meteohub,2013-08-17 12:21:00,
2013-08-17 08:26:00,62.4,61.9,30.29,North,0,2.0,2.0,98,0.00,,,0.00,meteohub,2013-08-17 12:26:00,
2013-08-17 08:31:00,63.1,62.2,30.28,SE,135,2.0,2.0,97,0.00,,,0.00,meteohub,2013-08-17 12:31:00,
2013-08-17 08:36:00,63.9,62.1,30.28,NW,315,2.0,4.0,94,0.00,,,0.00,meteohub,2013-08-17 12:36:00,
2013-08-17 08:41:00,64.6,62.4,30.28,North,0,3.0,4.0,93,0.00,,,0.00,meteohub,2013-08-17 12:41:00,
2013-08-17 08:46:00,64.9,61.7,30.28,NW,315,4.0,4.0,89,0.00,,,0.00,meteohub,2013-08-17 12:46:00,
2013-08-17 08:51:00,64.8,61.2,30.29,West,270,2.0,4.0,88,0.00,,,0.00,meteohub,2013-08-17 12:51:00,
2013-08-17 08:56:00,64.6,60.6,30.28,West,270,2.0,4.0,87,0.00,,,0.00,meteohub,2013-08-17 12:56:00,
2013-08-17 09:01:00,64.4,60.4,30.29,NW,315,4.0,4.0,87,0.00,,,0.00,meteohub,2013-08-17 13:01:00,
2013-08-17 09:06:00,63.9,59.5,30.29,North,0,4.0,4.0,86,0.00,,,0.00,meteohub,2013-08-17 13:06:00,
2013-08-17 09:11:00,64.4,60.8,30.29,NW,315,1.0,4.0,88,0.00,,,0.00,meteohub,2013-08-17 13:11:00,
2013-08-17 09:16:00,65.1,61.5,30.29,North,0,4.0,4.0,88,0.00,,,0.00,meteohub,2013-08-17 13:16:00,
2013-08-17 09:21:00,65.7,61.7,30.29,West,270,2.0,4.0,87,0.00,,,0.00,meteohub,2013-08-17 13:21:00,
2013-08-17 09:26:00,65.7,61.3,30.28,NW,315,4.0,4.0,86,0.00,,,0.00,meteohub,2013-08-17 13:26:00,
2013-08-17 09:31:00,65.5,60.8,30.29,NW,315,2.0,4.0,85,0.00,,,0.00,meteohub,2013-08-17 13:31:00,
2013-08-17 09:36:00,65.8,61.5,30.29,NE,45,4.0,4.0,86,0.00,,,0.00,meteohub,2013-08-17 13:36:00,
2013-08-17 09:41:00,66.0,61.7,30.29,NE,45,3.0,4.0,86,0.00,,,0.00,meteohub,2013-08-17 13:41:00,
2013-08-17 09:46:00,66.4,61.3,30.29,SE,135,2.0,4.0,84,0.00,,,0.00,meteohub,2013-08-17 13:46:00,
2013-08-17 09:51:00,66.6,61.9,30.29,NE,45,3.0,4.0,85,0.00,,,0.00,meteohub,2013-08-17 13:51:00,
2013-08-17 09:56:00,66.4,61.3,30.29,NE,45,2.0,3.0,84,0.00,,,0.00,meteohub,2013-08-17 13:56:00,
2013-08-17 10:01:00,66.6,61.5,30.28,NE,45,1.0,3.0,84,0.00,,,0.00,meteohub,2013-08-17 14:01:00,
2013-08-17 10:06:00,66.6,61.5,30.28,NE,45,1.0,3.0,84,0.00,,,0.00,meteohub,2013-08-17 14:06:00,
2013-08-17 10:11:00,68.0,61.5,30.29,NW,315,4.0,4.0,80,0.00,,,0.00,meteohub,2013-08-17 14:11:00,
2013-08-17 10:16:00,68.2,61.3,30.29,NW,315,4.0,6.0,79,0.00,,,0.00,meteohub,2013-08-17 14:16:00,
2013-08-17 10:21:00,67.8,61.0,30.29,NW,315,3.0,6.0,79,0.00,,,0.00,meteohub,2013-08-17 14:21:00,
2013-08-17 10:26:00,67.8,61.3,30.29,NW,315,5.0,6.0,80,0.00,,,0.00,meteohub,2013-08-17 14:26:00,
2013-08-17 10:32:00,68.0,60.8,30.30,North,0,4.0,6.0,78,0.00,,,0.00,meteohub,2013-08-17 14:32:00,
2013-08-17 10:36:00,68.2,61.0,30.30,NW,315,4.0,5.0,78,0.00,,,0.00,meteohub,2013-08-17 14:36:00,
2013-08-17 10:42:00,68.7,61.5,30.30,NW,315,4.0,7.0,78,0.00,,,0.00,meteohub,2013-08-17 14:42:00,
2013-08-17 10:47:00,69.3,62.1,30.31,NW,315,2.0,7.0,78,0.00,,,0.00,meteohub,2013-08-17 14:47:00,
2013-08-17 10:52:00,69.8,62.6,30.30,SE,135,2.0,7.0,78,0.00,,,0.00,meteohub,2013-08-17 14:52:00,
2013-08-17 10:57:00,70.0,62.1,30.30,NW,315,4.0,4.0,76,0.00,,,0.00,meteohub,2013-08-17 14:57:00,
2013-08-17 11:02:00,70.5,61.9,30.30,NW,315,4.0,4.0,74,0.00,,,0.00,meteohub,2013-08-17 15:02:00,
2013-08-17 11:07:00,71.2,62.6,30.30,NW,315,8.0,8.0,74,0.00,,,0.00,meteohub,2013-08-17 15:07:00,
2013-08-17 11:12:00,71.6,62.1,30.30,North,0,3.0,8.0,72,0.00,,,0.00,meteohub,2013-08-17 15:12:00,
2013-08-17 11:17:00,72.5,62.2,30.30,SE,135,2.0,8.0,70,0.00,,,0.00,meteohub,2013-08-17 15:17:00,
2013-08-17 11:22:00,72.3,62.4,30.30,NW,315,2.0,8.0,71,0.00,,,0.00,meteohub,2013-08-17 15:22:00,
2013-08-17 11:27:00,72.3,62.4,30.30,NW,315,2.0,5.0,71,0.00,,,0.00,meteohub,2013-08-17 15:27:00,
2013-08-17 11:32:00,72.3,62.1,30.30,North,0,4.0,5.0,70,0.00,,,0.00,meteohub,2013-08-17 15:32:00,
2013-08-17 11:37:00,72.1,61.9,30.30,South,180,3.0,5.0,70,0.00,,,0.00,meteohub,2013-08-17 15:37:00,
2013-08-17 11:42:00,72.0,62.1,30.30,East,90,2.0,5.0,71,0.00,,,0.00,meteohub,2013-08-17 15:42:00,
2013-08-17 11:47:00,72.0,61.2,30.30,North,0,4.0,5.0,69,0.00,,,0.00,meteohub,2013-08-17 15:47:00,
2013-08-17 11:52:00,71.4,61.2,30.29,North,0,1.0,5.0,70,0.00,,,0.00,meteohub,2013-08-17 15:52:00,
2013-08-17 11:57:00,71.4,61.9,30.29,South,180,2.0,5.0,72,0.00,,,0.00,meteohub,2013-08-17 15:57:00,
2013-08-17 12:02:00,71.4,62.2,30.29,NW,315,2.0,4.0,73,0.00,,,0.00,meteohub,2013-08-17 16:02:00,
2013-08-17 12:07:00,71.4,62.2,30.29,NW,315,2.0,3.0,73,0.00,,,0.00,meteohub,2013-08-17 16:07:00,
2013-08-17 12:12:00,71.6,61.7,30.29,SE,135,3.0,3.0,71,0.00,,,0.00,meteohub,2013-08-17 16:12:00,
2013-08-17 12:17:00,71.6,61.3,30.29,North,0,4.0,5.0,70,0.00,,,0.00,meteohub,2013-08-17 16:17:00,
2013-08-17 12:22:00,71.4,60.3,30.29,NW,315,5.0,5.0,68,0.00,,,0.00,meteohub,2013-08-17 16:22:00,
2013-08-17 12:27:00,71.1,59.2,30.29,NW,315,5.0,8.0,66,0.00,,,0.00,meteohub,2013-08-17 16:27:00,
2013-08-17 12:32:00,70.9,59.0,30.29,NW,315,6.0,8.0,66,0.00,,,0.00,meteohub,2013-08-17 16:32:00,
2013-08-17 12:37:00,70.7,59.2,30.29,North,0,4.0,8.0,67,0.00,,,0.00,meteohub,2013-08-17 16:37:00,
2013-08-17 12:42:00,70.7,59.2,30.29,North,0,4.0,8.0,67,0.00,,,0.00,meteohub,2013-08-17 16:42:00,
2013-08-17 12:47:00,70.9,59.4,30.29,North,0,3.0,6.0,67,0.00,,,0.00,meteohub,2013-08-17 16:47:00,
2013-08-17 12:52:00,70.9,59.4,30.29,North,0,3.0,6.0,67,0.00,,,0.00,meteohub,2013-08-17 16:52:00,
2013-08-17 12:57:00,70.9,59.4,30.29,North,0,4.0,6.0,67,0.00,,,0.00,meteohub,2013-08-17 16:57:00,
2013-08-17 13:02:00,70.9,59.4,30.29,SE,135,4.0,7.0,67,0.00,,,0.00,meteohub,2013-08-17 17:02:00,
2013-08-17 13:07:00,70.9,59.7,30.29,NE,45,3.0,7.0,68,0.00,,,0.00,meteohub,2013-08-17 17:07:00,
2013-08-17 13:12:00,71.1,59.9,30.30,North,0,1.0,7.0,68,0.00,,,0.00,meteohub,2013-08-17 17:12:00,
2013-08-17 13:17:00,71.2,60.1,30.30,NE,45,3.0,4.0,68,0.00,,,0.00,meteohub,2013-08-17 17:17:00,
2013-08-17 13:22:00,71.2,60.1,30.29,NW,315,6.0,6.0,68,0.00,,,0.00,meteohub,2013-08-17 17:22:00,
2013-08-17 13:27:00,70.9,59.7,30.30,North,0,4.0,7.0,68,0.00,,,0.00,meteohub,2013-08-17 17:27:00,
2013-08-17 13:32:00,70.9,59.4,30.29,North,0,4.0,7.0,67,0.00,,,0.00,meteohub,2013-08-17 17:32:00,
2013-08-17 13:37:00,70.7,59.2,30.29,NE,45,4.0,7.0,67,0.00,,,0.00,meteohub,2013-08-17 17:37:00,
2013-08-17 13:42:00,70.7,58.8,30.29,North,0,4.0,7.0,66,0.00,,,0.00,meteohub,2013-08-17 17:42:00,
2013-08-17 13:47:00,71.2,59.4,30.29,NE,45,4.0,7.0,66,0.00,,,0.00,meteohub,2013-08-17 17:47:00,
2013-08-17 13:52:00,71.4,59.5,30.29,North,0,3.0,7.0,66,0.00,,,0.00,meteohub,2013-08-17 17:52:00,
2013-08-17 13:57:00,71.6,58.8,30.29,North,0,6.0,7.0,64,0.00,,,0.00,meteohub,2013-08-17 17:57:00,
2013-08-17 14:02:00,71.4,59.0,30.28,North,0,5.0,7.0,65,0.00,,,0.00,meteohub,2013-08-17 18:02:00,
2013-08-17 14:07:00,71.4,59.0,30.29,North,0,5.0,9.0,65,0.00,,,0.00,meteohub,2013-08-17 18:07:00,
2013-08-17 14:12:00,70.9,58.1,30.28,NW,315,9.0,9.0,64,0.00,,,0.00,meteohub,2013-08-17 18:12:00,
2013-08-17 14:17:00,70.5,57.7,30.28,NW,315,8.0,9.0,64,0.00,,,0.00,meteohub,2013-08-17 18:17:00,
2013-08-17 14:22:00,70.5,57.7,30.28,North,0,5.0,11.0,64,0.00,,,0.00,meteohub,2013-08-17 18:22:00,
2013-08-17 14:27:00,70.5,57.4,30.28,NW,315,5.0,15.0,63,0.00,,,0.00,meteohub,2013-08-17 18:27:00,
2013-08-17 14:32:00,70.7,57.0,30.28,NE,45,5.0,15.0,62,0.00,,,0.00,meteohub,2013-08-17 18:32:00,
2013-08-17 14:37:00,71.2,57.6,30.27,NE,45,6.0,9.0,62,0.00,,,0.00,meteohub,2013-08-17 18:37:00,
2013-08-17 14:42:00,72.1,57.6,30.27,East,90,4.0,8.0,60,0.00,,,0.00,meteohub,2013-08-17 18:42:00,
2013-08-17 14:46:00,72.3,56.7,30.27,NW,315,9.0,9.0,58,0.00,,,0.00,meteohub,2013-08-17 18:46:00,
2013-08-17 14:51:00,72.1,56.5,30.27,NE,45,5.0,9.0,58,0.00,,,0.00,meteohub,2013-08-17 18:51:00,
2013-08-17 14:56:00,72.1,57.0,30.26,NW,315,7.0,9.0,59,0.00,,,0.00,meteohub,2013-08-17 18:56:00,
2013-08-17 15:02:00,71.8,57.6,30.26,WNW,293,4.0,9.0,61,0.00,,,0.00,meteohub,2013-08-17 19:02:00,
2013-08-17 15:07:00,71.6,57.9,30.26,NW,315,5.0,7.0,62,0.00,,,0.00,meteohub,2013-08-17 19:07:00,
2013-08-17 15:12:00,71.6,58.3,30.26,NE,45,4.0,7.0,63,0.00,,,0.00,meteohub,2013-08-17 19:12:00,
2013-08-17 15:17:00,71.4,58.6,30.26,North,0,5.0,7.0,64,0.00,,,0.00,meteohub,2013-08-17 19:17:00,
2013-08-17 15:22:00,71.1,58.3,30.26,West,270,8.0,9.0,64,0.00,,,0.00,meteohub,2013-08-17 19:22:00,
2013-08-17 15:27:00,70.7,57.9,30.25,NW,315,6.0,9.0,64,0.00,,,0.00,meteohub,2013-08-17 19:27:00,
2013-08-17 15:32:00,70.7,58.3,30.25,NW,315,8.0,9.0,65,0.00,,,0.00,meteohub,2013-08-17 19:32:00,
2013-08-17 15:37:00,70.5,58.1,30.25,NE,45,6.0,8.0,65,0.00,,,0.00,meteohub,2013-08-17 19:37:00,
2013-08-17 15:42:00,70.5,58.6,30.25,NW,315,7.0,8.0,66,0.00,,,0.00,meteohub,2013-08-17 19:42:00,
2013-08-17 15:47:00,70.2,57.9,30.25,NE,45,6.0,8.0,65,0.00,,,0.00,meteohub,2013-08-17 19:47:00,
2013-08-17 15:52:00,69.8,57.6,30.25,NW,315,6.0,7.0,65,0.00,,,0.00,meteohub,2013-08-17 19:52:00,
2013-08-17 15:57:00,69.6,57.7,30.25,NW,315,4.0,9.0,66,0.00,,,0.00,meteohub,2013-08-17 19:57:00,
2013-08-17 16:02:00,69.4,57.9,30.25,North,0,4.0,9.0,67,0.00,,,0.00,meteohub,2013-08-17 20:02:00,
2013-08-17 16:07:00,69.4,57.9,30.25,North,0,4.0,7.0,67,0.00,,,0.00,meteohub,2013-08-17 20:07:00,
2013-08-17 16:12:00,68.9,57.9,30.25,NW,315,6.0,6.0,68,0.00,,,0.00,meteohub,2013-08-17 20:12:00,
2013-08-17 16:17:00,68.7,58.1,30.26,North,0,4.0,6.0,69,0.00,,,0.00,meteohub,2013-08-17 20:17:00,
2013-08-17 16:22:00,68.4,58.6,30.26,NW,315,4.0,7.0,71,0.00,,,0.00,meteohub,2013-08-17 20:22:00,
2013-08-17 16:27:00,68.2,58.8,30.26,North,0,3.0,7.0,72,0.00,,,0.00,meteohub,2013-08-17 20:27:00,
2013-08-17 16:32:00,68.0,59.0,30.26,North,0,3.0,7.0,73,0.00,,,0.00,meteohub,2013-08-17 20:32:00,
2013-08-17 16:37:00,68.0,59.0,30.26,North,0,4.0,4.0,73,0.00,,,0.00,meteohub,2013-08-17 20:37:00,
2013-08-17 16:42:00,67.6,59.4,30.27,NE,45,4.0,4.0,75,0.00,,,0.00,meteohub,2013-08-17 20:42:00,
2013-08-17 16:47:00,67.6,59.7,30.26,North,0,2.0,4.0,76,0.00,,,0.00,meteohub,2013-08-17 20:47:00,
2013-08-17 16:52:00,67.5,60.1,30.27,South,180,2.0,5.0,77,0.00,,,0.00,meteohub,2013-08-17 20:52:00,
2013-08-17 16:57:00,66.9,59.9,30.27,South,180,2.0,5.0,78,0.00,,,0.00,meteohub,2013-08-17 20:57:00,
2013-08-17 17:02:00,66.2,59.9,30.27,South,180,2.0,5.0,80,0.00,,,0.00,meteohub,2013-08-17 21:02:00,
2013-08-17 17:07:00,65.7,60.6,30.27,SE,135,2.0,4.0,84,0.00,,,0.00,meteohub,2013-08-17 21:07:00,
2013-08-17 17:12:00,64.9,60.6,30.27,NW,315,1.0,3.0,86,0.00,,,0.00,meteohub,2013-08-17 21:12:00,
2013-08-17 17:17:00,64.6,60.3,30.27,SE,135,2.0,3.0,86,0.00,,,0.00,meteohub,2013-08-17 21:17:00,
2013-08-17 17:22:00,64.2,60.3,30.27,NE,45,0.0,3.0,87,0.00,,,0.00,meteohub,2013-08-17 21:22:00,
2013-08-17 17:27:00,64.0,60.4,30.27,NW,315,2.0,2.0,88,0.00,,,0.00,meteohub,2013-08-17 21:27:00,
2013-08-17 17:33:00,63.5,60.3,30.27,NW,315,1.0,2.0,89,0.01,,,0.01,meteohub,2013-08-17 21:33:00,
2013-08-17 17:38:00,63.3,60.6,30.27,NW,315,1.0,3.0,91,0.01,,,0.01,meteohub,2013-08-17 21:38:00,
2013-08-17 17:43:00,63.1,60.8,30.26,North,0,2.0,3.0,92,0.02,,,0.02,meteohub,2013-08-17 21:43:00,
2013-08-17 17:48:00,63.0,60.6,30.26,NW,315,2.0,2.0,92,0.02,,,0.02,meteohub,2013-08-17 21:48:00,
2013-08-17 17:53:00,62.8,60.8,30.26,WSW,248,2.0,2.0,93,0.02,,,0.02,meteohub,2013-08-17 21:53:00,
2013-08-17 17:58:00,62.8,60.8,30.26,NW,315,3.0,4.0,93,0.02,,,0.02,meteohub,2013-08-17 21:58:00,
2013-08-17 18:03:00,62.8,60.8,30.26,NW,315,3.0,4.0,93,0.04,,,0.04,meteohub,2013-08-17 22:03:00,
2013-08-17 18:08:00,62.6,60.8,30.26,North,0,2.0,4.0,94,0.04,,,0.04,meteohub,2013-08-17 22:08:00,
2013-08-17 18:13:00,62.6,61.2,30.26,North,0,3.0,3.0,95,0.04,,,0.04,meteohub,2013-08-17 22:13:00,
2013-08-17 18:18:00,62.6,61.2,30.26,NW,315,2.0,4.0,95,0.04,,,0.04,meteohub,2013-08-17 22:18:00,
2013-08-17 18:23:00,62.6,61.5,30.26,North,0,2.0,4.0,96,0.04,,,0.04,meteohub,2013-08-17 22:23:00,
2013-08-17 18:28:00,62.6,61.5,30.26,North,0,2.0,4.0,96,0.05,,,0.05,meteohub,2013-08-17 22:28:00,
2013-08-17 18:33:00,62.6,61.5,30.26,NW,315,3.0,4.0,96,0.04,,,0.05,meteohub,2013-08-17 22:33:00,
2013-08-17 18:38:00,62.6,61.7,30.26,NE,45,0.0,3.0,97,0.02,,,0.05,meteohub,2013-08-17 22:38:00,
2013-08-17 18:43:00,62.6,61.7,30.26,North,0,2.0,3.0,97,0.02,,,0.05,meteohub,2013-08-17 22:43:00,
2013-08-17 18:48:00,62.6,61.7,30.26,South,180,0.0,3.0,97,0.02,,,0.05,meteohub,2013-08-17 22:48:00,
2013-08-17 18:53:00,62.8,61.9,30.26,SE,135,2.0,2.0,97,0.02,,,0.05,meteohub,2013-08-17 22:53:00,
2013-08-17 18:58:00,62.6,61.5,30.25,NW,315,1.0,2.0,96,0.02,,,0.06,meteohub,2013-08-17 22:58:00,
2013-08-17 19:03:00,62.8,61.7,30.25,NW,315,2.0,3.0,96,0.02,,,0.06,meteohub,2013-08-17 23:03:00,
2013-08-17 19:08:00,62.8,61.7,30.25,NW,315,2.0,3.0,96,0.02,,,0.06,meteohub,2013-08-17 23:08:00,
2013-08-17 19:13:00,62.8,61.7,30.25,South,180,0.0,3.0,96,0.02,,,0.06,meteohub,2013-08-17 23:13:00,
2013-08-17 19:18:00,62.8,61.7,30.26,South,180,0.0,3.0,96,0.02,,,0.06,meteohub,2013-08-17 23:18:00,
2013-08-17 19:23:00,62.8,61.7,30.25,NW,315,0.0,3.0,96,0.02,,,0.07,meteohub,2013-08-17 23:23:00,
2013-08-17 19:28:00,62.8,61.7,30.25,North,0,2.0,2.0,96,0.02,,,0.07,meteohub,2013-08-17 23:28:00,
2013-08-17 19:33:00,62.8,61.7,30.25,NW,315,0.0,2.0,96,0.02,,,0.07,meteohub,2013-08-17 23:33:00,
2013-08-17 19:38:00,62.8,61.7,30.25,NW,315,2.0,2.0,96,0.02,,,0.07,meteohub,2013-08-17 23:38:00,
2013-08-17 19:43:00,63.0,61.9,30.25,SE,135,1.0,2.0,96,0.02,,,0.07,meteohub,2013-08-17 23:43:00,
2013-08-17 19:48:00,63.0,61.9,30.26,South,180,2.0,2.0,96,0.02,,,0.07,meteohub,2013-08-17 23:48:00,
2013-08-17 19:53:00,63.0,61.9,30.26,South,180,2.0,2.0,96,0.02,,,0.07,meteohub,2013-08-17 23:53:00,
2013-08-17 19:58:00,62.8,61.9,30.26,SE,135,1.0,2.0,97,0.01,,,0.07,meteohub,2013-08-17 23:58:00,
2013-08-17 20:03:00,62.8,61.9,30.25,NE,45,1.0,2.0,97,0.01,,,0.07,meteohub,2013-08-18 00:03:00,
2013-08-17 20:08:00,62.8,61.9,30.26,NE,45,1.0,2.0,97,0.01,,,0.00,meteohub,2013-08-18 00:08:00,
2013-08-17 20:13:00,62.8,61.9,30.26,SW,225,1.0,1.0,97,0.02,,,0.01,meteohub,2013-08-18 00:13:00,
2013-08-17 20:18:00,62.8,61.9,30.26,SW,225,0.0,1.0,97,0.02,,,0.01,meteohub,2013-08-18 00:18:00,
2013-08-17 20:23:00,62.8,61.9,30.26,NW,315,2.0,2.0,97,0.01,,,0.01,meteohub,2013-08-18 00:23:00,
2013-08-17 20:28:00,62.8,61.9,30.25,North,0,0.0,2.0,97,0.01,,,0.01,meteohub,2013-08-18 00:28:00,
2013-08-17 20:33:00,62.8,61.9,30.25,NW,315,2.0,2.0,97,0.01,,,0.01,meteohub,2013-08-18 00:33:00,
2013-08-17 20:38:00,62.8,61.9,30.25,SSE,158,1.0,2.0,97,0.01,,,0.01,meteohub,2013-08-18 00:38:00,
2013-08-17 20:43:00,62.8,61.9,30.26,SW,225,1.0,2.0,97,0.01,,,0.01,meteohub,2013-08-18 00:43:00,
2013-08-17 20:48:00,62.8,61.9,30.26,South,180,2.0,2.0,97,0.02,,,0.02,meteohub,2013-08-18 00:48:00,
2013-08-17 20:53:00,62.8,61.9,30.25,NW,315,0.0,2.0,97,0.02,,,0.02,meteohub,2013-08-18 00:53:00,
2013-08-17 20:58:00,63.0,62.1,30.25,East,90,0.0,2.0,97,0.02,,,0.02,meteohub,2013-08-18 00:58:00,
2013-08-17 21:03:00,63.0,62.1,30.25,South,180,2.0,2.0,97,0.02,,,0.02,meteohub,2013-08-18 01:03:00,
2013-08-17 21:09:00,63.0,62.1,30.26,SW,225,2.0,2.0,97,0.02,,,0.02,meteohub,2013-08-18 01:09:00,
2013-08-17 21:14:00,62.8,61.9,30.26,NE,45,1.0,3.0,97,0.01,,,0.02,meteohub,2013-08-18 01:14:00,
2013-08-17 21:19:00,62.8,61.9,30.26,SE,135,1.0,3.0,97,0.01,,,0.02,meteohub,2013-08-18 01:19:00,
2013-08-17 21:24:00,62.8,61.9,30.26,East,90,0.0,3.0,97,0.01,,,0.02,meteohub,2013-08-18 01:24:00,
2013-08-17 21:29:00,62.8,61.9,30.26,East,90,0.0,3.0,97,0.01,,,0.02,meteohub,2013-08-18 01:29:00,
2013-08-17 21:34:00,62.8,61.9,30.26,East,90,0.0,2.0,97,0.01,,,0.02,meteohub,2013-08-18 01:34:00,
2013-08-17 21:39:00,62.8,61.9,30.27,South,180,0.0,2.0,97,0.01,,,0.02,meteohub,2013-08-18 01:39:00,
2013-08-17 21:44:00,62.8,61.9,30.27,SW,225,1.0,2.0,97,0.01,,,0.02,meteohub,2013-08-18 01:44:00,
2013-08-17 21:49:00,62.8,61.9,30.27,SE,135,0.0,2.0,97,0.00,,,0.02,meteohub,2013-08-18 01:49:00,
2013-08-17 21:54:00,62.8,61.9,30.27,NW,315,0.0,2.0,97,0.00,,,0.02,meteohub,2013-08-18 01:54:00,
2013-08-17 21:59:00,62.8,61.9,30.27,SE,135,2.0,2.0,97,0.00,,,0.02,meteohub,2013-08-18 01:59:00,
2013-08-17 22:04:00,62.8,61.9,30.27,SE,135,1.0,2.0,97,0.00,,,0.02,meteohub,2013-08-18 02:04:00,
2013-08-17 22:09:00,62.8,61.9,30.27,South,180,0.0,2.0,97,0.00,,,0.02,meteohub,2013-08-18 02:09:00,
2013-08-17 22:14:00,62.8,61.9,30.27,South,180,0.0,2.0,97,0.00,,,0.02,meteohub,2013-08-18 02:14:00,
2013-08-17 22:19:00,62.8,61.9,30.27,SE,135,0.0,1.0,97,0.01,,,0.04,meteohub,2013-08-18 02:19:00,
2013-08-17 22:24:00,62.8,61.9,30.27,SE,135,0.0,2.0,97,0.01,,,0.04,meteohub,2013-08-18 02:24:00,
2013-08-17 22:29:00,62.8,61.9,30.27,NW,315,1.0,2.0,97,0.02,,,0.05,meteohub,2013-08-18 02:29:00,
2013-08-17 22:34:00,62.8,61.9,30.27,NW,315,0.0,2.0,97,0.04,,,0.05,meteohub,2013-08-18 02:34:00,
2013-08-17 22:39:00,62.8,61.9,30.27,SE,135,0.0,1.0,97,0.04,,,0.06,meteohub,2013-08-18 02:39:00,
2013-08-17 22:44:00,62.8,61.9,30.27,North,0,1.0,1.0,97,0.05,,,0.07,meteohub,2013-08-18 02:44:00,
2013-08-17 22:49:00,62.8,61.9,30.27,North,0,0.0,1.0,97,0.05,,,0.07,meteohub,2013-08-18 02:49:00,
2013-08-17 22:54:00,62.8,61.9,30.27,South,180,2.0,2.0,97,0.06,,,0.08,meteohub,2013-08-18 02:54:00,
2013-08-17 22:59:00,62.8,61.9,30.27,South,180,1.0,2.0,97,0.07,,,0.09,meteohub,2013-08-18 02:59:00,
2013-08-17 23:04:00,62.8,61.9,30.27,SE,135,1.0,2.0,97,0.07,,,0.09,meteohub,2013-08-18 03:04:00,
2013-08-17 23:09:00,62.8,61.9,30.27,SE,135,0.0,2.0,97,0.07,,,0.09,meteohub,2013-08-18 03:09:00,
2013-08-17 23:14:00,62.8,61.9,30.27,South,180,0.0,2.0,97,0.07,,,0.09,meteohub,2013-08-18 03:14:00,
2013-08-17 23:20:00,62.8,61.9,30.26,South,180,0.0,2.0,97,0.07,,,0.11,meteohub,2013-08-18 03:20:00,
2013-08-17 23:25:00,62.6,61.7,30.26,South,180,0.0,1.0,97,0.06,,,0.11,meteohub,2013-08-18 03:25:00,
2013-08-17 23:30:00,62.6,61.7,30.27,SE,135,2.0,2.0,97,0.07,,,0.12,meteohub,2013-08-18 03:30:00,
2013-08-17 23:35:00,62.6,61.7,30.27,SE,135,0.0,2.0,97,0.06,,,0.12,meteohub,2013-08-18 03:35:00,
2013-08-17 23:40:00,62.6,61.7,30.27,SE,135,1.0,2.0,97,0.07,,,0.13,meteohub,2013-08-18 03:40:00,
2013-08-17 23:45:00,62.6,61.7,30.27,SE,135,1.0,2.0,97,0.06,,,0.14,meteohub,2013-08-18 03:45:00,
2013-08-17 23:50:00,62.6,61.7,30.27,SE,135,0.0,2.0,97,0.06,,,0.14,meteohub,2013-08-18 03:50:00,
2013-08-17 23:55:00,62.6,61.7,30.27,SE,135,0.0,2.0,97,0.06,,,0.15,meteohub,2013-08-18 03:55:00,